Terminal Aerodrome Forecast
Issued by NWS

Home | Current Version | Previous Version | Text Only | Print | Product List | Glossary On
Versions: 1 2 3 4 5 6 7 8 9 10 11 12 13 14
000
FTUS46 KMTR 092333
TAFSJC
TAF
KSJC 092333Z 1000/1024 16009KT P6SM VCSH BKN030 OVC050
     FM100600 13012KT P6SM -SHRA BKN020 OVC035
     FM100900 12014G21KT P6SM -RA BKN015 OVC020
     FM102000 15010KT 4SM -RA OVC015=

USA.gov is the U.S. government's official web portal to all federal, state and local government web resources and services.